Time;durP1;ratioP1;P1;durP2;ratioP2;P2;SDS_P1;SDS_P2;PMS_P1;PMS_P2;Temp;Humidity;BMP_temperature;BMP_pressure;BME280_temperature;BME280_humidity;BME280_pressure;Samples;Min_cycle;Max_cycle;Signal;HPM_P1;HPM_P2
2023/02/17 00:00:54;;;;;;;6.93;6.22;;;12.50;99.90;;;;;;5034500;28;20172;-81
2023/02/17 00:03:20;;;;;;;5.70;5.18;;;12.50;99.90;;;;;;5032946;28;20203;-80
2023/02/17 00:05:45;;;;;;;6.50;6.00;;;12.50;99.90;;;;;;5034361;28;20686;-80
2023/02/17 00:08:11;;;;;;;6.20;5.70;;;12.50;99.90;;;;;;5034420;28;20172;-80
2023/02/17 00:10:37;;;;;;;6.13;5.63;;;12.50;99.90;;;;;;5034452;28;20521;-80
2023/02/17 00:13:03;;;;;;;9.85;4.90;;;12.40;99.90;;;;;;5034196;28;20224;-80
2023/02/17 00:15:28;;;;;;;5.88;5.40;;;12.50;99.90;;;;;;5032974;28;20644;-80
2023/02/17 00:17:54;;;;;;;5.45;5.05;;;12.60;99.90;;;;;;5034197;28;20195;-80
2023/02/17 00:20:19;;;;;;;5.47;5.07;;;12.70;99.90;;;;;;5034638;28;20167;-80
2023/02/17 00:22:45;;;;;;;5.72;5.20;;;12.60;99.90;;;;;;5034144;28;20715;-81
2023/02/17 00:25:11;;;;;;;5.00;4.60;;;12.50;99.90;;;;;;5034413;28;20179;-80
2023/02/17 00:27:36;;;;;;;4.63;4.22;;;12.50;99.90;;;;;;5034285;28;20651;-82
2023/02/17 00:30:03;;;;;;;4.97;4.68;;;12.50;99.90;;;;;;5033731;28;20243;-80
2023/02/17 00:32:28;;;;;;;4.57;4.18;;;12.60;99.90;;;;;;5032603;28;20206;-80
2023/02/17 00:34:55;;;;;;;5.18;4.78;;;12.60;99.90;;;;;;5035064;28;20172;-80
2023/02/17 00:37:21;;;;;;;4.43;4.10;;;12.50;99.90;;;;;;5040762;28;20160;-79
2023/02/17 00:39:47;;;;;;;4.45;4.05;;;12.60;99.90;;;;;;5052625;28;20176;-80
2023/02/17 00:42:12;;;;;;;4.50;3.47;;;12.50;99.90;;;;;;5035682;28;20203;-81
2023/02/17 00:44:38;;;;;;;4.22;3.92;;;12.60;99.90;;;;;;5033795;28;20521;-80
2023/02/17 00:47:03;;;;;;;4.35;3.78;;;12.60;99.90;;;;;;5033733;28;20179;-80
2023/02/17 00:49:29;;;;;;;3.42;2.97;;;12.50;99.90;;;;;;5033448;28;20190;-79
2023/02/17 00:51:59;;;;;;;3.53;3.25;;;12.50;99.90;;;;;;5033444;28;20196;-80
2023/02/17 00:54:25;;;;;;;3.17;2.97;;;12.40;99.90;;;;;;5033628;28;20625;-79
2023/02/17 00:56:51;;;;;;;3.58;3.20;;;12.40;99.90;;;;;;5033638;28;20253;-80
2023/02/17 00:59:16;;;;;;;6.25;3.10;;;12.40;99.90;;;;;;5033584;28;20170;-80
2023/02/17 01:01:42;;;;;;;4.25;3.10;;;12.40;99.90;;;;;;5032815;28;20172;-80
2023/02/17 01:04:08;;;;;;;3.72;2.65;;;12.40;99.90;;;;;;5033747;28;20179;-81
2023/02/17 01:06:37;;;;;;;3.08;2.78;;;12.30;99.90;;;;;;5033713;28;20176;-81
2023/02/17 01:09:05;;;;;;;3.70;3.40;;;12.30;99.90;;;;;;5033303;28;20168;-81
2023/02/17 01:11:32;;;;;;;4.85;4.35;;;12.30;99.90;;;;;;5033093;28;20171;-79
2023/02/17 01:13:59;;;;;;;5.55;4.15;;;12.40;99.90;;;;;;5032980;28;20164;-81
2023/02/17 01:16:28;;;;;;;5.38;3.65;;;12.40;99.90;;;;;;5032132;28;20179;-80
2023/02/17 01:18:54;;;;;;;4.80;3.83;;;12.20;99.90;;;;;;5032054;28;20187;-79
2023/02/17 01:21:22;;;;;;;4.40;4.00;;;12.20;99.90;;;;;;5033238;28;20172;-80
2023/02/17 01:23:54;;;;;;;5.68;4.43;;;12.20;99.90;;;;;;5032776;28;20250;-80
2023/02/17 01:26:22;;;;;;;4.22;3.90;;;12.20;99.90;;;;;;5032898;28;20195;-80
2023/02/17 01:28:49;;;;;;;5.07;4.68;;;12.20;99.90;;;;;;5031988;28;20163;-80
2023/02/17 01:31:17;;;;;;;6.05;5.45;;;12.20;99.90;;;;;;5032913;28;20674;-82
2023/02/17 01:33:43;;;;;;;5.07;4.68;;;12.20;99.90;;;;;;5032817;28;20661;-80
2023/02/17 01:36:11;;;;;;;5.68;4.93;;;12.10;99.90;;;;;;5031411;28;20183;-78
2023/02/17 01:38:37;;;;;;;5.82;5.22;;;12.10;99.90;;;;;;5032757;28;20167;-78
2023/02/17 01:41:04;;;;;;;6.70;4.78;;;12.20;99.90;;;;;;5032876;28;20625;-79
2023/02/17 01:43:29;;;;;;;6.30;5.78;;;12.30;99.90;;;;;;5031361;28;20230;-78
2023/02/17 01:46:00;;;;;;;5.05;4.63;;;12.30;99.90;;;;;;5031441;28;20567;-79
2023/02/17 01:48:57;;;;;;;5.50;4.80;;;12.30;99.90;;;;;;5032300;28;20253;-78
2023/02/17 01:51:30;;;;;;;5.30;4.82;;;12.40;99.90;;;;;;5026567;28;20278;-79
2023/02/17 01:54:19;;;;;;;4.68;4.25;;;12.50;99.90;;;;;;5032590;28;20179;-78
2023/02/17 01:56:47;;;;;;;6.03;5.43;;;12.40;99.90;;;;;;5031105;28;20179;-78
2023/02/17 01:59:19;;;;;;;7.97;5.55;;;12.30;99.90;;;;;;5031336;28;20206;-79
2023/02/17 02:01:48;;;;;;;8.95;4.47;;;12.20;99.90;;;;;;5032200;28;20187;-79
2023/02/17 02:04:17;;;;;;;4.68;4.30;;;12.10;99.90;;;;;;5032422;28;20229;-79
2023/02/17 02:06:43;;;;;;;4.80;3.92;;;12.00;99.90;;;;;;5032402;28;20644;-80
2023/02/17 02:09:22;;;;;;;5.47;4.38;;;12.20;99.90;;;;;;5031027;28;20215;-78
2023/02/17 02:11:49;;;;;;;5.63;5.10;;;12.20;99.90;;;;;;5032335;28;20195;-79
2023/02/17 02:14:17;;;;;;;5.35;4.85;;;12.20;99.90;;;;;;5032131;28;20163;-78
2023/02/17 02:17:12;;;;;;;8.10;5.38;;;12.20;99.90;;;;;;5032502;28;20178;-81
2023/02/17 02:19:57;;;;;;;7.47;5.00;;;12.20;99.90;;;;;;5031600;28;20175;-81
2023/02/17 02:22:50;;;;;;;14.80;5.65;;;12.10;99.90;;;;;;5031755;28;20257;-80
2023/02/17 02:25:28;;;;;;;6.88;6.15;;;12.00;99.90;;;;;;5031900;28;20180;-82
2023/02/17 02:28:34;;;;;;;5.60;5.10;;;12.00;99.90;;;;;;5032041;28;20171;-87
2023/02/17 02:31:19;;;;;;;7.00;5.97;;;12.00;99.90;;;;;;4988313;28;20180;-80
2023/02/17 02:33:57;;;;;;;6.28;5.68;;;11.90;99.90;;;;;;5032139;28;20184;-78
2023/02/17 02:36:31;;;;;;;7.95;5.28;;;11.90;99.90;;;;;;5032254;28;20164;-81
2023/02/17 02:39:11;;;;;;;9.32;6.45;;;11.80;99.90;;;;;;5030661;28;20186;-81
2023/02/17 02:41:41;;;;;;;6.28;5.68;;;11.70;99.90;;;;;;5032514;28;20159;-78
2023/02/17 02:44:08;;;;;;;8.15;5.55;;;11.70;99.90;;;;;;5033057;28;20175;-85
2023/02/17 02:46:34;;;;;;;8.65;5.95;;;11.70;99.90;;;;;;5031039;28;20168;-78
2023/02/17 02:49:00;;;;;;;14.18;5.28;;;11.90;99.90;;;;;;5032173;28;20171;-78
2023/02/17 02:51:47;;;;;;;10.02;6.05;;;12.00;99.90;;;;;;5032592;28;20631;-84
2023/02/17 02:54:45;;;;;;;8.13;5.47;;;11.90;99.90;;;;;;5030978;28;20550;-80
2023/02/17 02:57:22;;;;;;;8.10;5.90;;;11.80;99.90;;;;;;5032186;28;20160;-79
2023/02/17 02:59:59;;;;;;;8.18;5.72;;;11.80;99.90;;;;;;5030625;28;20194;-80
2023/02/17 03:02:58;;;;;;;7.38;5.75;;;11.70;99.90;;;;;;5030188;28;20559;-81
2023/02/17 03:05:32;;;;;;;8.93;5.63;;;11.70;99.90;;;;;;5031599;28;20184;-78
2023/02/17 03:08:05;;;;;;;10.27;5.22;;;11.70;99.90;;;;;;5032281;28;20532;-79
2023/02/17 03:10:31;;;;;;;7.82;4.35;;;11.70;99.90;;;;;;5032213;28;20202;-78
2023/02/17 03:12:57;;;;;;;5.47;4.93;;;11.70;99.90;;;;;;5031850;28;20223;-79
2023/02/17 03:15:30;;;;;;;7.03;4.55;;;11.70;99.90;;;;;;5030411;28;20167;-80
2023/02/17 03:18:01;;;;;;;6.95;4.75;;;11.70;99.90;;;;;;5031819;28;20190;-83
2023/02/17 03:20:30;;;;;;;10.00;5.05;;;11.70;99.90;;;;;;5031680;28;20294;-79
2023/02/17 03:22:55;;;;;;;6.47;5.15;;;11.80;99.90;;;;;;5031731;28;20289;-78
2023/02/17 03:25:21;;;;;;;7.78;5.25;;;11.80;99.90;;;;;;5031886;28;20548;-82
2023/02/17 03:27:47;;;;;;;5.70;4.70;;;11.70;99.90;;;;;;5031617;28;20171;-79
2023/02/17 03:30:13;;;;;;;6.18;5.05;;;11.60;99.90;;;;;;5031558;28;20247;-78
2023/02/17 03:32:40;;;;;;;5.57;5.10;;;11.60;99.90;;;;;;5032952;28;20246;-79
2023/02/17 03:35:06;;;;;;;6.97;5.25;;;11.70;99.90;;;;;;5035478;28;20251;-79
2023/02/17 03:37:32;;;;;;;5.85;5.35;;;11.70;99.90;;;;;;5033619;28;20233;-79
2023/02/17 03:39:57;;;;;;;6.65;5.60;;;11.80;99.90;;;;;;5034924;28;20189;-79
2023/02/17 03:42:23;;;;;;;5.57;5.05;;;11.60;99.90;;;;;;5033056;28;20227;-78
2023/02/17 03:44:49;;;;;;;8.30;5.47;;;11.60;99.90;;;;;;5035146;28;20167;-79
2023/02/17 03:47:15;;;;;;;5.45;4.95;;;11.60;99.90;;;;;;5035463;28;20690;-80
2023/02/17 03:49:40;;;;;;;5.75;5.22;;;11.70;99.90;;;;;;5035161;28;20222;-79
2023/02/17 03:52:06;;;;;;;5.65;5.10;;;11.70;99.90;;;;;;5034587;28;20683;-79
2023/02/17 03:54:31;;;;;;;5.38;4.88;;;11.80;99.90;;;;;;5043251;28;20164;-79
2023/02/17 03:56:59;;;;;;;8.93;6.15;;;11.80;99.90;;;;;;5043125;28;20529;-79
2023/02/17 03:59:27;;;;;;;12.40;5.63;;;11.70;99.90;;;;;;5042361;28;20160;-79
2023/02/17 04:01:52;;;;;;;8.50;4.72;;;11.70;99.90;;;;;;5038147;28;20325;-79
2023/02/17 04:04:20;;;;;;;7.30;5.43;;;11.70;99.90;;;;;;5040621;28;20711;-80
2023/02/17 04:06:45;;;;;;;10.50;4.75;;;11.60;99.90;;;;;;5040510;28;20164;-80
2023/02/17 04:09:11;;;;;;;5.28;4.78;;;11.50;99.90;;;;;;5039868;28;20523;-79
2023/02/17 04:11:37;;;;;;;9.57;5.43;;;11.50;99.90;;;;;;5039201;28;20172;-78
2023/02/17 04:14:03;;;;;;;6.28;4.10;;;11.60;99.90;;;;;;5039003;28;20267;-84
2023/02/17 04:16:29;;;;;;;4.70;4.20;;;11.60;99.90;;;;;;5038962;28;20195;-79
2023/02/17 04:18:54;;;;;;;5.68;4.45;;;11.50;99.90;;;;;;5037648;28;20187;-79
2023/02/17 04:21:20;;;;;;;11.25;4.35;;;11.50;99.90;;;;;;5039979;28;20217;-80
2023/02/17 04:23:45;;;;;;;6.93;5.30;;;11.60;99.90;;;;;;5039607;28;20294;-79
2023/02/17 04:26:11;;;;;;;4.28;3.80;;;11.60;99.90;;;;;;5038653;28;20299;-80
2023/02/17 04:28:40;;;;;;;12.73;4.28;;;11.50;99.90;;;;;;5037207;28;20182;-81
2023/02/17 04:31:06;;;;;;;6.00;5.07;;;11.60;99.90;;;;;;5034904;28;20199;-80
2023/02/17 04:33:33;;;;;;;6.72;4.85;;;11.60;99.90;;;;;;5038132;28;20261;-79
2023/02/17 04:35:59;;;;;;;5.90;4.80;;;11.50;99.90;;;;;;5037708;28;20230;-79
2023/02/17 04:38:27;;;;;;;8.88;5.18;;;11.60;99.90;;;;;;5035925;28;20210;-80
2023/02/17 04:40:55;;;;;;;11.70;4.88;;;11.50;99.90;;;;;;5040393;28;20176;-80
2023/02/17 04:43:21;;;;;;;5.85;4.55;;;11.60;99.90;;;;;;5033970;28;20219;-80
2023/02/17 04:45:48;;;;;;;11.35;5.38;;;11.60;99.90;;;;;;5035072;28;20160;-80
2023/02/17 04:48:14;;;;;;;9.20;4.50;;;11.60;99.90;;;;;;5035329;28;20164;-79
2023/02/17 04:50:40;;;;;;;4.95;4.45;;;11.60;99.90;;;;;;5041636;28;20245;-81
2023/02/17 04:53:07;;;;;;;10.02;5.80;;;11.50;99.90;;;;;;5034955;28;20203;-81
2023/02/17 04:55:32;;;;;;;7.22;5.05;;;11.40;99.90;;;;;;5033664;28;20168;-78
2023/02/17 04:57:58;;;;;;;5.40;4.10;;;11.50;99.90;;;;;;5033082;28;20168;-78
2023/02/17 05:00:24;;;;;;;5.55;4.38;;;11.40;99.90;;;;;;5033430;28;20168;-80
2023/02/17 05:02:49;;;;;;;4.97;4.47;;;11.40;99.90;;;;;;5033085;28;20218;-81
2023/02/17 05:05:17;;;;;;;6.38;3.85;;;11.40;99.90;;;;;;5033245;28;20179;-81
2023/02/17 05:07:44;;;;;;;11.45;5.10;;;11.40;99.90;;;;;;5033048;28;20207;-81
2023/02/17 05:10:11;;;;;;;7.03;3.88;;;11.50;99.90;;;;;;5033507;28;20160;-81
2023/02/17 05:12:38;;;;;;;5.30;4.38;;;11.50;99.90;;;;;;5033137;28;20209;-79
2023/02/17 05:15:05;;;;;;;6.22;4.80;;;11.50;99.90;;;;;;5031887;28;20186;-79
2023/02/17 05:17:30;;;;;;;4.63;4.05;;;11.50;99.90;;;;;;5032960;28;20187;-81
2023/02/17 05:19:56;;;;;;;7.50;5.18;;;11.40;99.90;;;;;;5032049;28;20175;-79
2023/02/17 05:22:22;;;;;;;7.22;4.70;;;11.40;99.90;;;;;;5031570;28;20230;-79
2023/02/17 05:24:47;;;;;;;10.30;5.03;;;11.30;99.90;;;;;;5033157;28;20199;-80
2023/02/17 05:27:13;;;;;;;6.95;5.63;;;11.30;99.90;;;;;;5031647;28;20182;-80
2023/02/17 05:29:38;;;;;;;7.93;5.07;;;11.40;99.90;;;;;;5032862;28;20572;-80
2023/02/17 05:32:04;;;;;;;9.18;5.55;;;11.30;99.90;;;;;;5032649;28;20195;-81
2023/02/17 05:34:33;;;;;;;7.55;4.68;;;11.30;99.90;;;;;;5033246;28;20705;-80
2023/02/17 05:36:58;;;;;;;5.90;4.47;;;11.40;99.90;;;;;;5033375;28;20637;-80
2023/02/17 05:39:24;;;;;;;8.02;5.05;;;11.50;99.90;;;;;;5032067;28;20174;-79
2023/02/17 05:41:49;;;;;;;5.80;4.53;;;11.50;99.90;;;;;;5031361;28;20282;-79
2023/02/17 05:44:15;;;;;;;5.13;4.55;;;11.30;99.90;;;;;;5032451;28;20176;-79
2023/02/17 05:46:41;;;;;;;4.55;4.03;;;11.40;99.90;;;;;;5032765;28;20218;-80
2023/02/17 05:49:06;;;;;;;5.35;4.75;;;11.30;99.90;;;;;;5031565;28;20195;-79
2023/02/17 05:51:32;;;;;;;5.05;4.00;;;11.30;99.90;;;;;;5032387;28;20175;-79
2023/02/17 05:53:58;;;;;;;7.75;4.35;;;11.40;99.90;;;;;;5031300;28;20182;-80
2023/02/17 05:56:23;;;;;;;6.18;3.90;;;11.30;99.90;;;;;;5031798;28;20177;-80
2023/02/17 05:58:49;;;;;;;9.95;4.80;;;11.40;99.90;;;;;;5032913;28;20160;-79
2023/02/17 06:01:15;;;;;;;6.63;3.80;;;11.30;99.90;;;;;;5032470;28;20253;-80
2023/02/17 06:03:40;;;;;;;6.55;3.97;;;11.30;99.90;;;;;;5030987;28;20280;-81
2023/02/17 06:06:06;;;;;;;6.55;4.32;;;11.30;99.90;;;;;;5032480;28;20167;-79
2023/02/17 06:08:33;;;;;;;6.72;3.60;;;11.40;99.90;;;;;;5032401;28;20226;-81
2023/02/17 06:10:59;;;;;;;3.65;3.22;;;11.40;99.90;;;;;;5032273;28;20163;-79
2023/02/17 06:13:25;;;;;;;5.95;4.60;;;11.40;99.90;;;;;;5030849;28;20192;-83
2023/02/17 06:15:50;;;;;;;3.55;3.03;;;11.30;99.90;;;;;;5032049;28;20262;-80
2023/02/17 06:18:16;;;;;;;8.00;4.00;;;11.20;99.90;;;;;;5030771;28;20535;-80
2023/02/17 06:20:42;;;;;;;6.47;3.92;;;11.30;99.90;;;;;;5032256;28;20475;-79
2023/02/17 06:23:07;;;;;;;5.13;4.43;;;11.30;99.90;;;;;;5030595;28;20220;-80
2023/02/17 06:25:33;;;;;;;6.38;4.10;;;11.40;99.90;;;;;;5031047;28;20172;-81
2023/02/17 06:27:59;;;;;;;11.38;5.00;;;11.40;99.90;;;;;;5032527;28;20202;-80
2023/02/17 06:30:24;;;;;;;4.43;4.03;;;11.50;99.90;;;;;;5032083;28;20683;-81
2023/02/17 06:32:50;;;;;;;5.82;4.55;;;11.50;99.90;;;;;;5030807;28;20191;-80
2023/02/17 06:35:15;;;;;;;6.60;4.43;;;11.50;99.90;;;;;;5031956;28;20200;-79
2023/02/17 06:37:42;;;;;;;9.32;4.93;;;11.40;99.90;;;;;;5030190;28;20620;-79
2023/02/17 06:40:08;;;;;;;8.90;4.60;;;11.40;99.90;;;;;;5030856;28;20651;-82
2023/02/17 06:42:34;;;;;;;7.82;5.00;;;11.40;99.90;;;;;;5031254;28;20210;-80
2023/02/17 06:45:02;;;;;;;5.70;4.82;;;11.40;99.90;;;;;;5032265;28;20539;-78
2023/02/17 06:47:27;;;;;;;8.75;5.68;;;11.40;99.90;;;;;;5032056;28;20176;-79
2023/02/17 06:49:53;;;;;;;4.47;4.03;;;11.40;99.90;;;;;;5030677;28;20571;-81
2023/02/17 06:52:18;;;;;;;8.55;5.88;;;11.40;99.90;;;;;;5032049;28;20644;-81
2023/02/17 06:54:46;;;;;;;12.68;5.55;;;11.40;99.90;;;;;;5030843;28;20167;-80
2023/02/17 06:57:11;;;;;;;6.25;5.30;;;11.30;99.90;;;;;;5030883;28;20278;-79
2023/02/17 06:59:37;;;;;;;6.55;4.95;;;11.30;99.90;;;;;;5031091;28;20250;-79
2023/02/17 07:02:03;;;;;;;8.05;5.28;;;11.40;99.90;;;;;;5030244;28;20203;-79
2023/02/17 07:04:29;;;;;;;13.05;6.03;;;11.50;99.90;;;;;;5032039;28;20164;-79
2023/02/17 07:06:54;;;;;;;9.93;5.25;;;11.40;99.90;;;;;;5033512;28;20526;-80
2023/02/17 07:09:20;;;;;;;9.40;4.93;;;11.40;99.90;;;;;;5035482;28;20176;-79
2023/02/17 07:11:45;;;;;;;6.93;5.20;;;11.50;99.90;;;;;;5035534;28;20186;-80
2023/02/17 07:14:11;;;;;;;7.63;5.75;;;11.50;99.90;;;;;;5034371;28;20175;-84
2023/02/17 07:16:38;;;;;;;6.13;4.50;;;11.50;99.90;;;;;;5036087;28;20168;-81
2023/02/17 07:19:04;;;;;;;6.15;5.57;;;11.40;99.90;;;;;;5035127;28;20188;-84
2023/02/17 07:21:29;;;;;;;6.28;5.63;;;11.50;99.90;;;;;;5036495;28;20179;-85
2023/02/17 07:23:55;;;;;;;5.85;5.25;;;11.40;99.90;;;;;;5036403;28;20216;-81
2023/02/17 07:26:20;;;;;;;7.13;5.53;;;11.40;99.90;;;;;;5036381;28;20164;-84
2023/02/17 07:28:46;;;;;;;6.00;5.40;;;11.40;99.90;;;;;;5034893;28;20168;-85
2023/02/17 07:31:14;;;;;;;9.10;5.20;;;11.40;99.90;;;;;;5035786;28;20164;-83
2023/02/17 07:33:41;;;;;;;12.52;5.22;;;11.50;99.90;;;;;;5036285;28;20203;-82
2023/02/17 07:36:09;;;;;;;6.88;6.15;;;11.50;99.90;;;;;;5041034;28;20172;-79
2023/02/17 07:38:36;;;;;;;6.13;4.63;;;11.60;99.90;;;;;;5043540;28;20195;-79
2023/02/17 07:41:10;;;;;;;5.80;5.20;;;11.60;99.90;;;;;;5052710;28;20186;-81
2023/02/17 07:43:36;;;;;;;8.95;5.85;;;11.60;99.90;;;;;;5040867;28;20216;-82
2023/02/17 07:46:01;;;;;;;7.93;6.18;;;11.60;99.90;;;;;;5034367;28;20616;-83
2023/02/17 07:48:27;;;;;;;6.68;5.13;;;11.60;99.90;;;;;;5034427;28;20172;-82
2023/02/17 07:50:53;;;;;;;6.45;5.85;;;11.60;99.90;;;;;;5035967;28;20531;-82
2023/02/17 07:53:19;;;;;;;10.48;5.40;;;11.60;99.90;;;;;;5035186;28;20270;-87
2023/02/17 07:55:44;;;;;;;5.47;4.97;;;11.70;99.90;;;;;;5035473;28;20192;-84
2023/02/17 07:58:10;;;;;;;9.23;5.75;;;11.70;99.90;;;;;;5035047;28;20225;-81
2023/02/17 08:00:35;;;;;;;5.78;5.07;;;11.70;99.90;;;;;;5035330;28;20404;-82
2023/02/17 08:03:01;;;;;;;7.25;5.20;;;11.70;99.90;;;;;;5035251;28;20222;-84
2023/02/17 08:05:27;;;;;;;6.93;4.68;;;11.70;99.90;;;;;;5034118;28;20171;-87
2023/02/17 08:13:18;;;;;;;7.55;6.13;;;11.70;99.90;;;;;;5035147;28;20183;-86
2023/02/17 08:13:24;;;;;;;8.63;4.55;;;11.80;99.90;;;;;;5035566;28;20198;-81
2023/02/17 08:15:49;;;;;;;5.03;4.53;;;11.90;99.90;;;;;;5033574;28;20230;-82
2023/02/17 08:18:15;;;;;;;9.18;4.95;;;11.80;99.90;;;;;;5032798;28;20259;-82
2023/02/17 08:20:40;;;;;;;7.78;5.22;;;11.80;99.90;;;;;;5033841;28;20218;-85
2023/02/17 08:23:06;;;;;;;7.53;4.65;;;11.80;99.90;;;;;;5033844;28;20643;-82
2023/02/17 08:25:34;;;;;;;7.35;3.97;;;11.90;99.90;;;;;;5035790;28;20233;-84
2023/02/17 08:28:00;;;;;;;5.05;4.18;;;12.10;99.90;;;;;;5034277;28;20164;-87
2023/02/17 08:30:26;;;;;;;4.60;3.75;;;12.20;99.90;;;;;;5034978;28;20160;-83
2023/02/17 08:32:51;;;;;;;3.70;3.20;;;12.10;99.90;;;;;;5035069;28;20248;-82
2023/02/17 08:35:21;;;;;;;4.30;3.90;;;12.20;99.90;;;;;;5033944;28;20172;-83
2023/02/17 08:37:48;;;;;;;4.95;3.85;;;12.20;99.90;;;;;;5034877;28;20311;-84
2023/02/17 08:40:14;;;;;;;4.20;3.50;;;12.20;99.90;;;;;;5034621;28;20671;-83
2023/02/17 08:42:40;;;;;;;3.50;3.17;;;12.10;99.90;;;;;;5032405;28;20580;-80
2023/02/17 08:45:06;;;;;;;2.83;2.63;;;12.20;99.90;;;;;;5034397;28;20176;-85
2023/02/17 08:47:33;;;;;;;4.07;2.88;;;12.30;99.90;;;;;;5032449;28;20174;-82
2023/02/17 08:49:58;;;;;;;3.42;3.13;;;12.30;99.90;;;;;;5031621;28;20172;-82
2023/02/17 08:52:24;;;;;;;4.63;2.72;;;12.40;99.90;;;;;;5032402;28;20263;-81
2023/02/17 08:54:51;;;;;;;3.05;2.42;;;12.40;99.90;;;;;;5033972;28;20617;-81
2023/02/17 08:57:17;;;;;;;2.58;2.38;;;12.40;99.90;;;;;;5032953;28;20175;-84
2023/02/17 08:59:46;;;;;;;3.72;3.13;;;12.50;99.90;;;;;;5034083;28;20168;-81
2023/02/17 09:02:15;;;;;;;2.65;2.45;;;12.50;99.90;;;;;;5032463;28;20248;-81
2023/02/17 09:04:42;;;;;;;2.20;1.88;;;12.70;99.90;;;;;;5034220;28;20203;-82
2023/02/17 09:07:10;;;;;;;2.40;2.15;;;12.70;99.90;;;;;;5033817;28;20684;-81
2023/02/17 09:09:36;;;;;;;2.95;2.35;;;12.70;99.90;;;;;;5033801;28;20168;-81
2023/02/17 09:12:02;;;;;;;2.42;2.15;;;12.80;99.90;;;;;;5033895;28;20195;-83
2023/02/17 09:14:28;;;;;;;2.65;2.45;;;12.80;99.90;;;;;;5033709;28;20172;-81
2023/02/17 09:16:55;;;;;;;2.72;2.47;;;12.90;99.90;;;;;;5032792;28;20189;-81
2023/02/17 09:19:21;;;;;;;2.22;2.03;;;13.00;99.90;;;;;;5032243;28;20624;-81
2023/02/17 09:21:47;;;;;;;2.75;2.45;;;13.10;99.90;;;;;;5032996;28;20172;-83
2023/02/17 09:24:13;;;;;;;3.15;2.30;;;13.20;99.90;;;;;;5033310;28;20211;-86
2023/02/17 09:26:39;;;;;;;2.10;1.88;;;13.30;99.90;;;;;;5034621;28;20168;-90
2023/02/17 09:29:06;;;;;;;8.00;2.40;;;13.40;99.90;;;;;;5033677;28;20167;-89
2023/02/17 09:31:33;;;;;;;3.35;2.25;;;13.40;99.90;;;;;;5033935;28;20178;-86
2023/02/17 09:33:59;;;;;;;2.50;2.30;;;13.50;99.90;;;;;;5032941;28;20194;-82
2023/02/17 09:36:28;;;;;;;2.70;1.67;;;13.60;99.90;;;;;;5033750;28;20171;-86
2023/02/17 09:38:54;;;;;;;2.25;1.73;;;13.60;99.90;;;;;;5034964;28;20168;-82
2023/02/17 09:41:37;;;;;;;2.63;1.85;;;13.70;99.90;;;;;;5034319;28;20172;-83
2023/02/17 09:44:09;;;;;;;4.32;1.50;;;13.80;99.90;;;;;;5034590;28;20735;-81
2023/02/17 09:46:44;;;;;;;3.60;1.95;;;13.80;99.90;;;;;;5039324;28;20190;-81
2023/02/17 09:49:18;;;;;;;1.40;1.30;;;13.90;99.90;;;;;;5052620;28;20195;-83
2023/02/17 09:51:52;;;;;;;1.60;1.50;;;14.10;99.90;;;;;;5038573;28;20548;-87
2023/02/17 09:54:29;;;;;;;1.60;1.50;;;14.40;99.90;;;;;;5032788;28;20164;-81
2023/02/17 09:56:56;;;;;;;1.40;1.30;;;14.40;99.90;;;;;;5032945;28;20170;-80
2023/02/17 09:59:32;;;;;;;1.95;1.50;;;14.40;99.90;;;;;;5031756;28;20647;-84
2023/02/17 10:02:00;;;;;;;2.75;1.80;;;14.30;99.90;;;;;;5035663;28;20191;-82
2023/02/17 10:04:34;;;;;;;2.17;1.98;;;14.30;99.90;;;;;;5037529;28;20175;-81
2023/02/17 10:07:28;;;;;;;2.10;1.70;;;14.20;99.90;;;;;;5038061;28;20243;-80
2023/02/17 10:10:12;;;;;;;2.05;1.73;;;14.10;99.90;;;;;;5037743;28;20214;-81
2023/02/17 10:12:44;;;;;;;6.57;2.63;;;14.20;99.90;;;;;;5035389;28;20240;-83
2023/02/17 10:15:20;;;;;;;2.03;1.83;;;14.20;99.90;;;;;;5037657;28;20164;-81
2023/02/17 10:17:59;;;;;;;3.00;2.28;;;14.30;99.90;;;;;;5032594;28;20185;-81
2023/02/17 10:20:31;;;;;;;2.88;2.00;;;14.40;99.90;;;;;;5032968;28;20236;-84
2023/02/17 10:23:06;;;;;;;2.75;2.03;;;14.30;99.90;;;;;;5032515;28;20211;-81
2023/02/17 10:26:04;;;;;;;2.92;2.53;;;14.50;99.90;;;;;;5031547;28;20171;-81
2023/02/17 10:28:41;;;;;;;2.75;1.85;;;14.60;99.90;;;;;;5032505;28;20294;-80
2023/02/17 10:31:39;;;;;;;3.13;1.92;;;14.50;99.90;;;;;;5030868;28;20179;-80
2023/02/17 10:34:18;;;;;;;1.73;1.63;;;14.40;99.90;;;;;;5031966;28;20168;-81
2023/02/17 10:37:01;;;;;;;1.98;1.70;;;14.60;99.90;;;;;;5032076;28;20195;-80
2023/02/17 10:39:53;;;;;;;1.88;1.67;;;14.60;99.90;;;;;;5032096;28;20168;-80
2023/02/17 10:42:33;;;;;;;1.63;1.52;;;14.70;99.90;;;;;;5034844;28;20200;-80
2023/02/17 10:45:30;;;;;;;3.92;1.30;;;14.70;99.90;;;;;;5035496;28;20532;-81
2023/02/17 10:48:23;;;;;;;1.20;1.10;;;14.70;99.90;;;;;;5035092;28;20210;-82
2023/02/17 10:50:49;;;;;;;2.08;1.00;;;14.70;99.90;;;;;;5035067;28;20250;-80
2023/02/17 10:53:21;;;;;;;1.58;1.30;;;14.60;99.90;;;;;;5035640;28;20194;-79
2023/02/17 10:56:16;;;;;;;3.90;1.60;;;14.80;99.90;;;;;;5036181;28;20166;-84
2023/02/17 10:59:16;;;;;;;5.38;1.52;;;14.80;99.90;;;;;;5036607;28;20614;-82
2023/02/17 11:01:43;;;;;;;4.53;1.30;;;15.00;99.90;;;;;;5040706;28;20183;-80
2023/02/17 11:04:10;;;;;;;2.53;1.30;;;14.90;99.90;;;;;;5056242;28;20260;-89
2023/02/17 11:06:49;;;;;;;3.25;0.70;;;14.80;99.90;;;;;;5045669;28;20196;-88
2023/02/17 11:09:31;;;;;;;1.55;0.60;;;14.60;99.90;;;;;;5058368;28;20532;-87
2023/02/17 11:12:05;;;;;;;1.02;0.50;;;14.50;99.90;;;;;;5046858;28;20675;-87
2023/02/17 11:14:33;;;;;;;1.08;0.90;;;14.60;99.90;;;;;;5028272;28;20168;-90
2023/02/17 11:17:17;;;;;;;11.32;1.20;;;14.80;99.90;;;;;;5042401;28;20622;-80
2023/02/17 11:20:13;;;;;;;2.83;1.05;;;14.90;99.90;;;;;;5059833;28;20246;-90
2023/02/17 11:22:45;;;;;;;2.40;1.30;;;14.80;99.90;;;;;;5030948;28;20226;-89
2023/02/17 11:25:28;;;;;;;1.05;0.93;;;14.80;99.90;;;;;;5050869;28;20179;-90
2023/02/17 11:27:56;;;;;;;0.47;0.45;;;14.70;99.90;;;;;;5057415;28;20244;-83
2023/02/17 11:30:25;;;;;;;0.90;0.52;;;14.60;99.90;;;;;;5047745;28;20174;-80
2023/02/17 11:32:50;;;;;;;0.73;0.70;;;14.50;99.90;;;;;;5045252;28;20197;-82
2023/02/17 11:35:40;;;;;;;3.63;0.65;;;14.40;99.90;;;;;;5037297;28;20200;-82
2023/02/17 11:38:15;;;;;;;9.57;0.65;;;14.30;99.90;;;;;;5044952;28;20183;-80
2023/02/17 11:40:51;;;;;;;4.15;1.13;;;14.30;99.90;;;;;;5071539;28;20175;-80
2023/02/17 11:43:19;;;;;;;0.82;0.80;;;14.40;99.90;;;;;;5061525;28;20209;-81
2023/02/17 11:46:08;;;;;;;1.92;0.65;;;14.70;99.90;;;;;;5039690;28;20171;-81
2023/02/17 11:48:52;;;;;;;0.57;0.50;;;14.80;99.90;;;;;;5042281;28;20182;-80
2023/02/17 11:51:24;;;;;;;1.70;0.50;;;14.80;99.90;;;;;;5068497;28;20187;-84
2023/02/17 11:54:30;;;;;;;5.18;0.77;;;14.80;99.90;;;;;;5079169;28;20228;-82
2023/02/17 11:56:56;;;;;;;5.47;0.73;;;14.70;99.90;;;;;;5019746;28;20647;-86
2023/02/17 11:59:56;;;;;;;0.75;0.47;;;14.80;99.90;;;;;;5058022;28;20173;-83
2023/02/17 12:02:44;;;;;;;1.17;0.50;;;14.80;99.90;;;;;;5057016;28;20568;-84
2023/02/17 12:05:15;;;;;;;3.50;0.80;;;14.90;99.90;;;;;;5055684;28;20186;-82
2023/02/17 12:08:11;;;;;;;3.50;0.47;;;14.80;99.90;;;;;;5057387;28;20182;-83
2023/02/17 12:11:03;;;;;;;2.05;0.60;;;14.60;99.90;;;;;;5039296;28;20167;-82
2023/02/17 12:13:59;;;;;;;0.60;0.60;;;14.70;99.90;;;;;;5028709;28;20203;-78
2023/02/17 12:16:55;;;;;;;2.50;0.50;;;14.80;99.90;;;;;;5053361;28;20658;-80
2023/02/17 12:19:44;;;;;;;1.45;0.60;;;14.70;99.90;;;;;;5059468;28;20190;-81
2023/02/17 12:22:51;;;;;;;3.13;0.70;;;14.80;99.90;;;;;;5071280;28;20190;-79
2023/02/17 12:25:27;;;;;;;0.30;0.30;;;14.80;99.90;;;;;;4999894;28;20250;-81
2023/02/17 12:28:08;;;;;;;7.43;1.05;;;14.70;99.90;;;;;;5042168;28;20827;-83
2023/02/17 12:30:50;;;;;;;3.17;0.95;;;14.50;99.90;;;;;;5053297;28;20209;-84
2023/02/17 12:33:24;;;;;;;7.68;2.90;;;14.50;99.90;;;;;;5035690;28;20792;-81
2023/02/17 12:36:01;;;;;;;1.40;0.55;;;14.50;99.90;;;;;;5052496;28;20175;-80
2023/02/17 12:38:31;;;;;;;0.57;0.57;;;14.50;99.90;;;;;;5035387;28;20231;-80
2023/02/17 12:41:13;;;;;;;6.28;0.85;;;14.70;99.90;;;;;;5035748;28;20175;-83
2023/02/17 12:43:50;;;;;;;2.03;0.65;;;14.70;99.90;;;;;;5035912;28;20301;-81
2023/02/17 12:46:25;;;;;;;0.50;0.50;;;14.70;99.90;;;;;;5053849;28;20224;-82
2023/02/17 12:48:59;;;;;;;0.82;0.60;;;14.50;99.90;;;;;;5053521;28;20257;-82
2023/02/17 12:51:42;;;;;;;4.28;1.95;;;14.30;99.90;;;;;;5053649;28;20271;-80
2023/02/17 12:54:34;;;;;;;0.90;0.73;;;14.20;99.90;;;;;;5054771;28;20182;-81
2023/02/17 12:57:22;;;;;;;1.30;0.60;;;14.20;99.90;;;;;;5054960;28;20631;-90
2023/02/17 12:59:50;;;;;;;6.10;0.90;;;14.30;99.90;;;;;;5055990;28;20171;-89
2023/02/17 13:02:20;;;;;;;2.28;1.13;;;14.30;99.90;;;;;;5037003;28;20183;-82
2023/02/17 13:04:50;;;;;;;6.22;0.82;;;14.40;99.90;;;;;;5037172;28;20604;-87
2023/02/17 13:07:38;;;;;;;0.70;0.68;;;14.50;99.90;;;;;;5054561;28;20160;-82